QFA55 PAFA-PANC
Flight info
| Callsign | QFA55 |
|---|---|
| Flight time | 0h 50m |
| Altitude | 31000 |
| Route | PUYVO5 PUYVO KROTO5 |
| Aircraft | B738/M-SDE2E3FGHIRWXY/LB1 |
Departure
| Time | 2026-04-26 09:25 |
|---|---|
| Airport | Fairbanks International Airport (PAFA) |
Arrival
| Time | 2026-04-26 10:15 |
|---|---|
| Airport | Ted Stevens Anchorage International Airport (PANC) |
| Time | Latitude | Longitude | Altitude | Speed | Heading |
|---|---|---|---|---|---|
| 2026-04-26 09:11 | 64.81640 | -147.86852 | 443 ft | 0 kts | 14° |
| 2026-04-26 09:18 | 64.81633 | -147.86856 | 443 ft | 3 kts | 14° |
| 2026-04-26 09:18 | 64.81610 | -147.86870 | 443 ft | 3 kts | 14° |
| 2026-04-26 09:18 | 64.81586 | -147.86883 | 443 ft | 3 kts | 14° |
| 2026-04-26 09:18 | 64.81563 | -147.86897 | 443 ft | 3 kts | 24° |
| 2026-04-26 09:19 | 64.81558 | -147.86928 | 443 ft | 4 kts | 122° |
| 2026-04-26 09:19 | 64.81565 | -147.86954 | 443 ft | 0 kts | 121° |
| 2026-04-26 09:21 | 64.81564 | -147.86948 | 443 ft | 0 kts | 121° |
| 2026-04-26 09:21 | 64.81556 | -147.86919 | 443 ft | 5 kts | 122° |
| 2026-04-26 09:21 | 64.81522 | -147.86819 | 443 ft | 10 kts | 130° |
| 2026-04-26 09:21 | 64.81456 | -147.86738 | 443 ft | 13 kts | 196° |
| 2026-04-26 09:22 | 64.81375 | -147.86872 | 443 ft | 16 kts | 219° |
| 2026-04-26 09:22 | 64.81274 | -147.87058 | 443 ft | 20 kts | 218° |
| 2026-04-26 09:22 | 64.81152 | -147.87285 | 443 ft | 24 kts | 218° |
| 2026-04-26 09:22 | 64.81015 | -147.87533 | 443 ft | 25 kts | 218° |
| 2026-04-26 09:23 | 64.80877 | -147.87781 | 443 ft | 25 kts | 218° |
| 2026-04-26 09:23 | 64.80741 | -147.88034 | 443 ft | 25 kts | 218° |
| 2026-04-26 09:23 | 64.80604 | -147.88287 | 443 ft | 25 kts | 218° |
| 2026-04-26 09:23 | 64.80477 | -147.88521 | 443 ft | 20 kts | 218° |
| 2026-04-26 09:24 | 64.80379 | -147.88695 | 443 ft | 16 kts | 205° |
| 2026-04-26 09:24 | 64.80298 | -147.88635 | 443 ft | 11 kts | 131° |
| 2026-04-26 09:24 | 64.80337 | -147.88449 | 443 ft | 26 kts | 38° |
| 2026-04-26 09:24 | 64.80624 | -147.87927 | 443 ft | 81 kts | 38° |
| 2026-04-26 09:25 | 64.81220 | -147.86829 | 443 ft | 136 kts | 38° |
| 2026-04-26 09:25 | 64.82066 | -147.85268 | 649 ft | 159 kts | 38° |
| 2026-04-26 09:25 | 64.82898 | -147.83684 | 1371 ft | 156 kts | 38° |
| 2026-04-26 09:25 | 64.83769 | -147.82013 | 1880 ft | 168 kts | 38° |
| 2026-04-26 09:26 | 64.84788 | -147.80552 | 2406 ft | 177 kts | 14° |
| 2026-04-26 09:26 | 64.86007 | -147.80848 | 2926 ft | 187 kts | 329° |
| 2026-04-26 09:26 | 64.86762 | -147.83311 | 3500 ft | 194 kts | 282° |
| 2026-04-26 09:26 | 64.86671 | -147.86503 | 4059 ft | 204 kts | 251° |
| 2026-04-26 09:27 | 64.85914 | -147.89463 | 4512 ft | 219 kts | 230° |
| 2026-04-26 09:27 | 64.84909 | -147.92322 | 4968 ft | 239 kts | 229° |
| 2026-04-26 09:27 | 64.83796 | -147.95410 | 5457 ft | 256 kts | 229° |
| 2026-04-26 09:27 | 64.82642 | -147.98687 | 6157 ft | 263 kts | 230° |
| 2026-04-26 09:28 | 64.81489 | -148.02070 | 6951 ft | 268 kts | 231° |
| 2026-04-26 09:28 | 64.80328 | -148.05524 | 7752 ft | 271 kts | 231° |
| 2026-04-26 09:28 | 64.79152 | -148.09014 | 8536 ft | 274 kts | 231° |
| 2026-04-26 09:28 | 64.77941 | -148.12583 | 9327 ft | 277 kts | 231° |
| 2026-04-26 09:29 | 64.76731 | -148.16129 | 10097 ft | 280 kts | 230° |
| 2026-04-26 09:29 | 64.75474 | -148.19797 | 10477 ft | 298 kts | 229° |
| 2026-04-26 09:29 | 64.74138 | -148.23687 | 10818 ft | 315 kts | 229° |
| 2026-04-26 09:29 | 64.72733 | -148.27784 | 11199 ft | 330 kts | 229° |
| 2026-04-26 09:30 | 64.71281 | -148.32009 | 11863 ft | 336 kts | 227° |
| 2026-04-26 09:30 | 64.69590 | -148.35784 | 12581 ft | 337 kts | 214° |
| 2026-04-26 09:30 | 64.67656 | -148.38886 | 13393 ft | 337 kts | 211° |
| 2026-04-26 09:30 | 64.65695 | -148.41931 | 14216 ft | 340 kts | 211° |
| 2026-04-26 09:31 | 64.63712 | -148.44968 | 15030 ft | 342 kts | 210° |
| 2026-04-26 09:31 | 64.61712 | -148.48024 | 15832 ft | 345 kts | 210° |
| 2026-04-26 09:31 | 64.59699 | -148.51111 | 16632 ft | 348 kts | 210° |
| 2026-04-26 09:31 | 64.57672 | -148.54226 | 17410 ft | 351 kts | 210° |
| 2026-04-26 09:32 | 64.55623 | -148.57370 | 18183 ft | 354 kts | 210° |
| 2026-04-26 09:32 | 64.53559 | -148.60527 | 18918 ft | 357 kts | 210° |
| 2026-04-26 09:32 | 64.51474 | -148.63706 | 19634 ft | 360 kts | 210° |
| 2026-04-26 09:32 | 64.49369 | -148.66907 | 20308 ft | 364 kts | 210° |
| 2026-04-26 09:33 | 64.47240 | -148.70143 | 20961 ft | 368 kts | 210° |
| 2026-04-26 09:33 | 64.45088 | -148.73407 | 21613 ft | 371 kts | 210° |
| 2026-04-26 09:33 | 64.42922 | -148.76688 | 22229 ft | 374 kts | 210° |
| 2026-04-26 09:33 | 64.40734 | -148.79995 | 22831 ft | 377 kts | 210° |
| 2026-04-26 09:34 | 64.38529 | -148.83319 | 23405 ft | 380 kts | 210° |
| 2026-04-26 09:34 | 64.36301 | -148.86671 | 23962 ft | 383 kts | 210° |
| 2026-04-26 09:34 | 64.34054 | -148.90041 | 24497 ft | 387 kts | 210° |
| 2026-04-26 09:34 | 64.31794 | -148.93430 | 25007 ft | 390 kts | 210° |
| 2026-04-26 09:35 | 64.29514 | -148.96858 | 25494 ft | 393 kts | 211° |
| 2026-04-26 09:35 | 64.27222 | -149.00341 | 25964 ft | 396 kts | 211° |
| 2026-04-26 09:35 | 64.24916 | -149.03858 | 26405 ft | 399 kts | 211° |
| 2026-04-26 09:35 | 64.22558 | -149.07439 | 26846 ft | 402 kts | 211° |
| 2026-04-26 09:36 | 64.21008 | -149.09780 | 27113 ft | 404 kts | 211° |
| 2026-04-26 09:36 | 64.18649 | -149.13325 | 27515 ft | 407 kts | 211° |
| 2026-04-26 09:36 | 64.16273 | -149.16888 | 27895 ft | 409 kts | 211° |
| 2026-04-26 09:36 | 64.13880 | -149.20474 | 28248 ft | 412 kts | 212° |
| 2026-04-26 09:37 | 64.11465 | -149.24086 | 28454 ft | 419 kts | 212° |
| 2026-04-26 09:37 | 64.09011 | -149.27752 | 28672 ft | 424 kts | 212° |
| 2026-04-26 09:37 | 64.06490 | -149.31257 | 28952 ft | 425 kts | 205° |
| 2026-04-26 09:37 | 64.03733 | -149.33671 | 29279 ft | 425 kts | 195° |
| 2026-04-26 09:38 | 64.00848 | -149.35165 | 29635 ft | 425 kts | 192° |
| 2026-04-26 09:38 | 63.97953 | -149.36546 | 29954 ft | 426 kts | 192° |
| 2026-04-26 09:38 | 63.95038 | -149.37871 | 30257 ft | 427 kts | 192° |
| 2026-04-26 09:38 | 63.92120 | -149.39188 | 30564 ft | 428 kts | 192° |
| 2026-04-26 09:39 | 63.89199 | -149.40533 | 30868 ft | 429 kts | 192° |
| 2026-04-26 09:39 | 63.86274 | -149.41904 | 31038 ft | 431 kts | 193° |
| 2026-04-26 09:39 | 63.83330 | -149.43286 | 31050 ft | 432 kts | 193° |
| 2026-04-26 09:40 | 63.77425 | -149.46015 | 31055 ft | 434 kts | 192° |
| 2026-04-26 09:40 | 63.71480 | -149.48736 | 31057 ft | 430 kts | 193° |
| 2026-04-26 09:41 | 63.65640 | -149.51413 | 31060 ft | 427 kts | 193° |
| 2026-04-26 09:41 | 63.59807 | -149.54073 | 31062 ft | 428 kts | 192° |
| 2026-04-26 09:42 | 63.53967 | -149.56723 | 31063 ft | 428 kts | 193° |
| 2026-04-26 09:42 | 63.48122 | -149.59362 | 31064 ft | 428 kts | 193° |
| 2026-04-26 09:43 | 63.42278 | -149.61991 | 31066 ft | 429 kts | 193° |
| 2026-04-26 09:43 | 63.36425 | -149.64613 | 31068 ft | 429 kts | 193° |
| 2026-04-26 09:44 | 63.30568 | -149.67225 | 31071 ft | 430 kts | 193° |
| 2026-04-26 09:44 | 63.24705 | -149.69830 | 31075 ft | 430 kts | 193° |
| 2026-04-26 09:45 | 63.18839 | -149.72424 | 31078 ft | 430 kts | 193° |
| 2026-04-26 09:45 | 63.12966 | -149.75012 | 31082 ft | 431 kts | 193° |
| 2026-04-26 09:46 | 63.07081 | -149.77595 | 31086 ft | 432 kts | 193° |
| 2026-04-26 09:46 | 63.01181 | -149.80172 | 31090 ft | 433 kts | 193° |
| 2026-04-26 09:47 | 62.95261 | -149.82748 | 31095 ft | 434 kts | 193° |
| 2026-04-26 09:47 | 62.89330 | -149.85318 | 31098 ft | 435 kts | 193° |
| 2026-04-26 09:48 | 62.83342 | -149.87903 | 31103 ft | 436 kts | 193° |
| 2026-04-26 09:48 | 62.77391 | -149.90459 | 30533 ft | 433 kts | 194° |
| 2026-04-26 09:48 | 62.74457 | -149.91713 | 29958 ft | 426 kts | 193° |
| 2026-04-26 09:49 | 62.71569 | -149.92946 | 29414 ft | 420 kts | 193° |
| 2026-04-26 09:49 | 62.68720 | -149.94162 | 28881 ft | 414 kts | 193° |
| 2026-04-26 09:49 | 62.65909 | -149.95361 | 28355 ft | 409 kts | 193° |
| 2026-04-26 09:49 | 62.63136 | -149.96541 | 27838 ft | 404 kts | 193° |
| 2026-04-26 09:50 | 62.60396 | -149.97704 | 27325 ft | 399 kts | 193° |
| 2026-04-26 09:50 | 62.57694 | -149.98849 | 26820 ft | 394 kts | 192° |
| 2026-04-26 09:50 | 62.55020 | -149.99979 | 26320 ft | 389 kts | 192° |
| 2026-04-26 09:50 | 62.52374 | -150.01095 | 25825 ft | 385 kts | 192° |
| 2026-04-26 09:51 | 62.49764 | -150.02195 | 25338 ft | 380 kts | 192° |
| 2026-04-26 09:51 | 62.47180 | -150.03282 | 24854 ft | 376 kts | 192° |
| 2026-04-26 09:51 | 62.44629 | -150.04353 | 24377 ft | 372 kts | 191° |
| 2026-04-26 09:51 | 62.42099 | -150.05413 | 23903 ft | 368 kts | 191° |
| 2026-04-26 09:52 | 62.39605 | -150.06457 | 23436 ft | 363 kts | 191° |
| 2026-04-26 09:52 | 62.34693 | -150.08505 | 22517 ft | 355 kts | 191° |
| 2026-04-26 09:52 | 62.32278 | -150.09509 | 22066 ft | 351 kts | 191° |
| 2026-04-26 09:53 | 62.29890 | -150.10502 | 21619 ft | 348 kts | 191° |
| 2026-04-26 09:53 | 62.27524 | -150.11398 | 21178 ft | 344 kts | 189° |
| 2026-04-26 09:53 | 62.25150 | -150.12151 | 20741 ft | 350 kts | 188° |
| 2026-04-26 09:53 | 62.22736 | -150.12869 | 20290 ft | 349 kts | 188° |
| 2026-04-26 09:54 | 62.20343 | -150.13610 | 19845 ft | 346 kts | 188° |
| 2026-04-26 09:54 | 62.17972 | -150.14389 | 19404 ft | 344 kts | 189° |
| 2026-04-26 09:54 | 62.15622 | -150.15177 | 18967 ft | 341 kts | 188° |
| 2026-04-26 09:54 | 62.13281 | -150.15955 | 18532 ft | 339 kts | 188° |
| 2026-04-26 09:55 | 62.10920 | -150.16724 | 18093 ft | 337 kts | 188° |
| 2026-04-26 09:55 | 62.08611 | -150.17468 | 17664 ft | 334 kts | 188° |
| 2026-04-26 09:55 | 62.06323 | -150.18206 | 17238 ft | 331 kts | 188° |
| 2026-04-26 09:55 | 62.04059 | -150.18939 | 16818 ft | 328 kts | 188° |
| 2026-04-26 09:56 | 62.01805 | -150.19669 | 16399 ft | 327 kts | 188° |
| 2026-04-26 09:56 | 61.99558 | -150.20396 | 15920 ft | 327 kts | 188° |
| 2026-04-26 09:56 | 61.97327 | -150.21116 | 15473 ft | 322 kts | 188° |
| 2026-04-26 09:56 | 61.95115 | -150.21828 | 15053 ft | 320 kts | 188° |
| 2026-04-26 09:57 | 61.92921 | -150.22533 | 14642 ft | 319 kts | 188° |
| 2026-04-26 09:57 | 61.90726 | -150.23237 | 14232 ft | 318 kts | 188° |
| 2026-04-26 09:57 | 61.88543 | -150.23937 | 13822 ft | 317 kts | 188° |
| 2026-04-26 09:57 | 61.86372 | -150.24633 | 13417 ft | 315 kts | 188° |
| 2026-04-26 09:58 | 61.84208 | -150.25324 | 13015 ft | 314 kts | 188° |
| 2026-04-26 09:58 | 61.82055 | -150.26012 | 12614 ft | 312 kts | 188° |
| 2026-04-26 09:58 | 61.79912 | -150.26695 | 12215 ft | 310 kts | 188° |
| 2026-04-26 09:58 | 61.77786 | -150.27371 | 11820 ft | 309 kts | 188° |
| 2026-04-26 09:59 | 61.75669 | -150.28043 | 11479 ft | 304 kts | 188° |
| 2026-04-26 09:59 | 61.73639 | -150.28688 | 11369 ft | 286 kts | 188° |
| 2026-04-26 09:59 | 61.71711 | -150.29300 | 11253 ft | 276 kts | 188° |
| 2026-04-26 09:59 | 61.69832 | -150.29807 | 11141 ft | 270 kts | 181° |
| 2026-04-26 10:00 | 61.67940 | -150.29695 | 10871 ft | 275 kts | 177° |
| 2026-04-26 10:00 | 61.66027 | -150.29482 | 10558 ft | 274 kts | 176° |
| 2026-04-26 10:00 | 61.64149 | -150.29247 | 10258 ft | 266 kts | 176° |
| 2026-04-26 10:00 | 61.62327 | -150.29021 | 9971 ft | 259 kts | 176° |
| 2026-04-26 10:01 | 61.60535 | -150.28808 | 9695 ft | 257 kts | 176° |
| 2026-04-26 10:01 | 61.58758 | -150.28602 | 9432 ft | 255 kts | 176° |
| 2026-04-26 10:01 | 61.56980 | -150.28395 | 9151 ft | 256 kts | 177° |
| 2026-04-26 10:01 | 61.55207 | -150.28187 | 8883 ft | 255 kts | 175° |
| 2026-04-26 10:02 | 61.53445 | -150.27980 | 8585 ft | 253 kts | 176° |
| 2026-04-26 10:02 | 61.51663 | -150.27778 | 8312 ft | 252 kts | 176° |
| 2026-04-26 10:02 | 61.49918 | -150.27579 | 8033 ft | 251 kts | 176° |
| 2026-04-26 10:02 | 61.48198 | -150.27381 | 7777 ft | 250 kts | 176° |
| 2026-04-26 10:03 | 61.46444 | -150.27178 | 7501 ft | 249 kts | 176° |
| 2026-04-26 10:03 | 61.44712 | -150.26978 | 7231 ft | 249 kts | 176° |
| 2026-04-26 10:03 | 61.42993 | -150.26780 | 6958 ft | 246 kts | 176° |
| 2026-04-26 10:03 | 61.41281 | -150.26583 | 6694 ft | 246 kts | 176° |
| 2026-04-26 10:04 | 61.39570 | -150.26386 | 6428 ft | 246 kts | 176° |
| 2026-04-26 10:04 | 61.37869 | -150.26190 | 6164 ft | 245 kts | 176° |
| 2026-04-26 10:04 | 61.36169 | -150.25996 | 5898 ft | 244 kts | 176° |
| 2026-04-26 10:04 | 61.34482 | -150.25802 | 5634 ft | 243 kts | 176° |
| 2026-04-26 10:05 | 61.32794 | -150.25609 | 5371 ft | 244 kts | 176° |
| 2026-04-26 10:05 | 61.31107 | -150.25495 | 5105 ft | 242 kts | 183° |
| 2026-04-26 10:05 | 61.29480 | -150.26266 | 5038 ft | 241 kts | 201° |
| 2026-04-26 10:05 | 61.27922 | -150.27649 | 5024 ft | 245 kts | 202° |
| 2026-04-26 10:06 | 61.26359 | -150.29076 | 5015 ft | 246 kts | 202° |
| 2026-04-26 10:06 | 61.24867 | -150.30815 | 5017 ft | 248 kts | 219° |
| 2026-04-26 10:06 | 61.23839 | -150.33654 | 4974 ft | 249 kts | 246° |
| 2026-04-26 10:06 | 61.23525 | -150.37192 | 4816 ft | 252 kts | 266° |
| 2026-04-26 10:07 | 61.23491 | -150.40777 | 4605 ft | 244 kts | 269° |
| 2026-04-26 10:07 | 61.23503 | -150.44297 | 4425 ft | 243 kts | 269° |
| 2026-04-26 10:07 | 61.23513 | -150.47780 | 4251 ft | 241 kts | 269° |
| 2026-04-26 10:07 | 61.23509 | -150.51238 | 4110 ft | 236 kts | 268° |
| 2026-04-26 10:08 | 61.23495 | -150.54579 | 4031 ft | 230 kts | 268° |
| 2026-04-26 10:08 | 61.23278 | -150.57802 | 4023 ft | 222 kts | 244° |
| 2026-04-26 10:08 | 61.22322 | -150.60193 | 4020 ft | 215 kts | 209° |
| 2026-04-26 10:08 | 61.20910 | -150.60987 | 4030 ft | 212 kts | 175° |
| 2026-04-26 10:09 | 61.19533 | -150.59992 | 4036 ft | 212 kts | 149° |
| 2026-04-26 10:09 | 61.18684 | -150.58896 | 4019 ft | 213 kts | 147° |
| 2026-04-26 10:09 | 61.17563 | -150.56934 | 4012 ft | 211 kts | 128° |
| 2026-04-26 10:09 | 61.16912 | -150.54230 | 4015 ft | 212 kts | 104° |
| 2026-04-26 10:10 | 61.16794 | -150.51177 | 4013 ft | 215 kts | 90° |
| 2026-04-26 10:10 | 61.16818 | -150.48086 | 4012 ft | 214 kts | 90° |
| 2026-04-26 10:10 | 61.16838 | -150.45018 | 4002 ft | 211 kts | 90° |
| 2026-04-26 10:10 | 61.16853 | -150.42011 | 3990 ft | 208 kts | 91° |
| 2026-04-26 10:11 | 61.16866 | -150.39045 | 3731 ft | 203 kts | 90° |
| 2026-04-26 10:11 | 61.16879 | -150.36174 | 3463 ft | 196 kts | 90° |
| 2026-04-26 10:11 | 61.16891 | -150.33386 | 3211 ft | 193 kts | 90° |
| 2026-04-26 10:11 | 61.16901 | -150.30628 | 2951 ft | 190 kts | 90° |
| 2026-04-26 10:12 | 61.16910 | -150.27919 | 2702 ft | 182 kts | 91° |
| 2026-04-26 10:12 | 61.16918 | -150.25364 | 2464 ft | 175 kts | 90° |
| 2026-04-26 10:12 | 61.16926 | -150.22861 | 2249 ft | 171 kts | 90° |
| 2026-04-26 10:12 | 61.16933 | -150.20421 | 2009 ft | 168 kts | 90° |
| 2026-04-26 10:13 | 61.16939 | -150.18001 | 1789 ft | 168 kts | 90° |
| 2026-04-26 10:13 | 61.16945 | -150.15585 | 1564 ft | 165 kts | 91° |
| 2026-04-26 10:13 | 61.16953 | -150.13317 | 1361 ft | 152 kts | 90° |
| 2026-04-26 10:13 | 61.16975 | -150.11181 | 1105 ft | 150 kts | 89° |
| 2026-04-26 10:14 | 61.16980 | -150.08975 | 939 ft | 154 kts | 91° |
| 2026-04-26 10:14 | 61.16970 | -150.06772 | 745 ft | 152 kts | 91° |
| 2026-04-26 10:14 | 61.16971 | -150.04579 | 534 ft | 152 kts | 91° |
| 2026-04-26 10:14 | 61.16977 | -150.02418 | 362 ft | 148 kts | 90° |
| 2026-04-26 10:15 | 61.16976 | -150.00311 | 176 ft | 143 kts | 91° |
| 2026-04-26 10:15 | 61.16975 | -149.98545 | 161 ft | 89 kts | 91° |
| 2026-04-26 10:15 | 61.16975 | -149.97605 | 161 ft | 39 kts | 90° |
| 2026-04-26 10:15 | 61.16978 | -149.97143 | 161 ft | 29 kts | 89° |
| 2026-04-26 10:16 | 61.16984 | -149.96873 | 161 ft | 14 kts | 71° |
| 2026-04-26 10:16 | 61.17066 | -149.96808 | 161 ft | 12 kts | 354° |
| 2026-04-26 10:16 | 61.17124 | -149.96912 | 161 ft | 12 kts | 277° |
| 2026-04-26 10:16 | 61.17128 | -149.97132 | 161 ft | 19 kts | 271° |
| 2026-04-26 10:17 | 61.17117 | -149.97443 | 161 ft | 23 kts | 268° |
| 2026-04-26 10:17 | 61.17118 | -149.97778 | 161 ft | 23 kts | 271° |
| 2026-04-26 10:17 | 61.17118 | -149.98118 | 161 ft | 24 kts | 269° |
| 2026-04-26 10:17 | 61.17118 | -149.98449 | 161 ft | 21 kts | 271° |
| 2026-04-26 10:18 | 61.17146 | -149.98687 | 161 ft | 17 kts | 314° |
| 2026-04-26 10:18 | 61.17255 | -149.98792 | 161 ft | 18 kts | 340° |
| 2026-04-26 10:18 | 61.17369 | -149.98877 | 161 ft | 18 kts | 340° |
| 2026-04-26 10:18 | 61.17487 | -149.98963 | 161 ft | 18 kts | 341° |
| 2026-04-26 10:19 | 61.17607 | -149.99052 | 161 ft | 16 kts | 356° |
| 2026-04-26 10:19 | 61.17681 | -149.98898 | 161 ft | 17 kts | 70° |
| 2026-04-26 10:19 | 61.17652 | -149.98727 | 161 ft | 12 kts | 155° |
| 2026-04-26 10:19 | 61.17599 | -149.98635 | 161 ft | 9 kts | 122° |
| 2026-04-26 10:20 | 61.17577 | -149.98511 | 161 ft | 8 kts | 104° |
| 2026-04-26 10:20 | 61.17573 | -149.98485 | 161 ft | 0 kts | 105° |